Time;durP1;ratioP1;P1;durP2;ratioP2;P2;SDS_P1;SDS_P2;PMS_P1;PMS_P2;Temp;Humidity;BMP_temperature;BMP_pressure;BME280_temperature;BME280_humidity;BME280_pressure;Samples;Min_cycle;Max_cycle;Signal;HPM_P1;HPM_P2
2024/01/18 00:02:11;;;;;;;1.10;1.10;;;;;;;3.01;nan;99091.16;5090961;28;20228;-69
2024/01/18 00:04:40;;;;;;;1.63;1.63;;;;;;;3.04;nan;99083.53;5094719;28;20191;-70
2024/01/18 00:07:07;;;;;;;1.77;1.67;;;;;;;3.03;nan;99084.41;5109116;28;20590;-70
2024/01/18 00:09:33;;;;;;;1.47;1.47;;;;;;;2.92;nan;99068.41;5090954;28;20666;-70
2024/01/18 00:12:00;;;;;;;1.27;1.27;;;;;;;3.02;nan;99090.31;5092961;28;20203;-70
2024/01/18 00:14:27;;;;;;;1.30;1.20;;;;;;;2.96;nan;99082.75;5090985;28;20199;-69
2024/01/18 00:16:55;;;;;;;1.47;1.47;;;;;;;2.95;nan;99085.25;5104182;28;20222;-69
2024/01/18 00:19:21;;;;;;;1.43;1.43;;;;;;;2.92;nan;99068.41;5111743;28;20266;-68
2024/01/18 00:21:48;;;;;;;1.90;1.80;;;;;;;2.93;nan;99071.78;5090193;28;20195;-68
2024/01/18 00:24:15;;;;;;;1.00;1.00;;;;;;;3.04;nan;99081.00;5091355;28;20199;-68
2024/01/18 00:26:42;;;;;;;1.13;1.13;;;;;;;3.00;nan;99063.31;5099309;28;20249;-68
2024/01/18 00:29:08;;;;;;;1.10;1.10;;;;;;;3.13;nan;99073.34;5102352;28;20200;-68
2024/01/18 00:31:35;;;;;;;1.47;1.47;;;;;;;3.17;nan;99072.47;5091365;28;20256;-68
2024/01/18 00:34:03;;;;;;;0.83;0.83;;;;;;;3.18;nan;99064.03;5091103;28;20667;-68
2024/01/18 00:36:30;;;;;;;1.00;1.00;;;;;;;3.20;nan;99063.22;5107740;28;20195;-68
2024/01/18 00:38:56;;;;;;;0.67;0.67;;;;;;;3.26;nan;99065.69;5098304;28;20267;-68
2024/01/18 00:41:23;;;;;;;0.90;0.90;;;;;;;3.31;nan;99063.97;5098352;28;20580;-68
2024/01/18 00:43:50;;;;;;;1.00;1.00;;;;;;;3.35;nan;99055.50;5091097;28;20196;-68
2024/01/18 00:46:18;;;;;;;0.97;0.97;;;;;;;3.35;nan;99060.56;5104896;28;20670;-68
2024/01/18 00:48:45;;;;;;;1.57;1.57;;;;;;;3.40;nan;99059.66;5111090;28;20199;-68
2024/01/18 00:51:13;;;;;;;1.43;1.43;;;;;;;3.41;nan;99057.97;5110965;28;20255;-68
2024/01/18 00:53:41;;;;;;;3.03;1.60;;;;;;;3.42;nan;99057.16;5094567;28;20203;-68
2024/01/18 00:56:09;;;;;;;0.97;0.97;;;;;;;3.45;nan;99063.03;5091026;28;20195;-68
2024/01/18 00:58:36;;;;;;;1.90;1.90;;;;;;;3.47;nan;99056.25;5090762;28;20699;-68
2024/01/18 01:01:03;;;;;;;1.20;1.20;;;;;;;3.50;nan;99056.22;5090763;28;20284;-68
2024/01/18 01:03:30;;;;;;;0.73;0.73;;;;;;;3.51;nan;99049.47;5090167;28;20671;-68
2024/01/18 01:05:57;;;;;;;2.47;2.37;;;;;;;3.51;nan;99036.81;5100308;28;20255;-68
2024/01/18 01:08:25;;;;;;;0.90;0.90;;;;;;;3.53;nan;99040.16;5091820;28;20195;-68
2024/01/18 01:10:52;;;;;;;0.80;0.80;;;;;;;3.56;nan;99035.06;5101930;28;20632;-69
2024/01/18 01:13:19;;;;;;;1.37;1.37;;;;;;;3.48;nan;99030.06;5102761;28;20194;-68
2024/01/18 01:15:46;;;;;;;2.07;2.07;;;;;;;3.35;nan;99009.91;5091835;28;20223;-68
2024/01/18 01:18:12;;;;;;;0.77;0.77;;;;;;;3.46;nan;99015.72;5098892;28;20743;-68
2024/01/18 01:20:39;;;;;;;1.07;1.07;;;;;;;3.46;nan;99018.25;5090588;28;20191;-68
2024/01/18 01:23:06;;;;;;;1.43;1.43;;;;;;;3.49;nan;99015.72;5090398;28;20249;-68
2024/01/18 01:25:34;;;;;;;0.60;0.60;;;;;;;3.45;nan;99011.50;5095606;28;20243;-68
2024/01/18 01:28:01;;;;;;;0.60;0.60;;;;;;;3.47;nan;98999.66;5092879;28;20278;-68
2024/01/18 01:30:28;;;;;;;0.70;0.70;;;;;;;3.50;nan;98994.56;5103535;28;20203;-68
2024/01/18 01:32:55;;;;;;;0.80;0.80;;;;;;;3.55;nan;98992.84;5091931;28;20198;-68
2024/01/18 01:35:21;;;;;;;0.60;0.60;;;;;;;3.57;nan;98989.44;5092981;28;20200;-68
2024/01/18 01:37:48;;;;;;;1.73;1.63;;;;;;;3.59;nan;99002.09;5100027;28;20583;-68
2024/01/18 01:40:15;;;;;;;1.80;1.70;;;;;;;3.60;nan;98994.47;5093432;28;20256;-68
2024/01/18 01:42:43;;;;;;;1.00;1.00;;;;;;;3.59;nan;98997.88;5095166;28;20736;-68
2024/01/18 01:45:10;;;;;;;0.80;0.80;;;;;;;3.64;nan;98995.28;5093101;28;20249;-68
2024/01/18 01:47:38;;;;;;;1.43;1.43;;;;;;;3.66;nan;98991.88;5095557;28;20255;-68
2024/01/18 01:50:08;;;;;;;0.80;0.80;;;;;;;3.65;nan;98989.38;5110966;28;20205;-68
2024/01/18 01:52:36;;;;;;;0.80;0.80;;;;;;;3.68;nan;98986.81;5091042;28;20195;-68
2024/01/18 01:55:03;;;;;;;1.37;1.27;;;;;;;3.70;nan;98988.47;5097773;28;20567;-68
2024/01/18 01:57:31;;;;;;;0.60;0.60;;;;;;;3.69;nan;98971.59;5091450;28;20624;-68
2024/01/18 01:59:59;;;;;;;0.97;0.97;;;;;;;3.66;nan;98978.38;5091376;28;20649;-68
2024/01/18 02:02:26;;;;;;;0.60;0.60;;;;;;;3.60;nan;98968.28;5092033;28;20195;-68
2024/01/18 02:04:53;;;;;;;1.33;1.33;;;;;;;3.69;nan;98973.28;5110437;28;20203;-68
2024/01/18 02:07:21;;;;;;;1.20;1.20;;;;;;;3.68;nan;98969.06;5093486;28;20636;-68
2024/01/18 02:09:48;;;;;;;1.00;1.00;;;;;;;3.67;nan;98963.16;5110393;28;20199;-68
2024/01/18 02:12:16;;;;;;;0.97;0.97;;;;;;;3.66;nan;98961.47;5103797;28;20200;-68
2024/01/18 02:14:43;;;;;;;0.90;0.90;;;;;;;3.66;nan;98966.53;5095455;28;20210;-68
2024/01/18 02:17:11;;;;;;;1.27;1.27;;;;;;;3.63;nan;98955.59;5114123;28;20226;-68
2024/01/18 02:19:37;;;;;;;1.20;1.10;;;;;;;3.68;nan;98958.94;5112619;28;20643;-68
2024/01/18 02:22:08;;;;;;;0.80;0.80;;;;;;;3.68;nan;98948.81;5094207;28;20260;-68
2024/01/18 02:24:42;;;;;;;1.17;1.17;;;;;;;3.60;nan;98933.66;5093165;28;20724;-68
2024/01/18 02:27:10;;;;;;;1.53;1.43;;;;;;;3.70;nan;98944.53;5102320;28;20248;-68
2024/01/18 02:29:37;;;;;;;1.00;1.00;;;;;;;3.60;nan;98922.69;5093888;28;20218;-68
2024/01/18 02:32:04;;;;;;;1.00;1.00;;;;;;;3.67;nan;98932.75;5094951;28;20195;-68
2024/01/18 02:34:31;;;;;;;1.20;1.20;;;;;;;3.77;nan;98947.84;5096379;28;20196;-68
2024/01/18 02:36:59;;;;;;;1.27;1.17;;;;;;;3.80;nan;98938.53;5096644;28;20199;-68
2024/01/18 02:39:25;;;;;;;5.00;1.03;;;;;;;3.81;nan;98940.22;5093114;28;20223;-68
2024/01/18 02:41:52;;;;;;;0.80;0.80;;;;;;;3.81;nan;98940.22;5095358;28;20667;-68
2024/01/18 02:44:21;;;;;;;1.27;1.27;;;;;;;3.84;nan;98936.81;5099803;28;20195;-68
2024/01/18 02:46:48;;;;;;;1.13;1.13;;;;;;;3.86;nan;98941.00;5097257;28;20207;-68
2024/01/18 02:49:14;;;;;;;0.70;0.70;;;;;;;3.87;nan;98929.16;5102417;27;20193;-68
2024/01/18 02:51:41;;;;;;;0.70;0.70;;;;;;;3.84;nan;98924.13;5106842;28;20752;-68
2024/01/18 02:54:08;;;;;;;1.03;1.03;;;;;;;3.86;nan;98933.38;5099376;28;20626;-68
2024/01/18 02:56:34;;;;;;;0.90;0.90;;;;;;;3.88;nan;98935.94;5094167;28;20203;-68
2024/01/18 02:59:01;;;;;;;1.30;1.30;;;;;;;3.91;nan;98930.81;5103048;28;20225;-68
2024/01/18 03:01:29;;;;;;;0.80;0.80;;;;;;;3.88;nan;98930.84;5095900;28;20256;-68
2024/01/18 03:03:56;;;;;;;0.80;0.80;;;;;;;3.87;nan;98919.88;5101779;28;20247;-68
2024/01/18 03:06:22;;;;;;;0.90;0.90;;;;;;;3.89;nan;98917.28;5091358;28;20195;-68
2024/01/18 03:08:49;;;;;;;1.10;1.10;;;;;;;3.81;nan;98893.75;5096573;28;20203;-68
2024/01/18 03:11:16;;;;;;;1.43;1.43;;;;;;;3.92;nan;98902.91;5093037;28;20191;-68
2024/01/18 03:13:43;;;;;;;0.73;0.73;;;;;;;3.89;nan;98902.94;5106352;28;20735;-68
2024/01/18 03:16:11;;;;;;;1.10;1.10;;;;;;;3.93;nan;98904.59;5092088;28;20304;-68
2024/01/18 03:18:42;;;;;;;0.90;0.90;;;;;;;3.87;nan;98897.06;5092256;28;20302;-68
2024/01/18 03:21:08;;;;;;;1.77;1.77;;;;;;;3.84;nan;98886.94;5101340;28;20202;-68
2024/01/18 03:23:35;;;;;;;1.00;1.00;;;;;;;3.90;nan;98891.94;5113243;28;20632;-68
2024/01/18 03:26:02;;;;;;;0.60;0.60;;;;;;;3.89;nan;98895.31;5093320;28;20203;-68
2024/01/18 03:28:28;;;;;;;1.60;1.60;;;;;;;3.92;nan;98887.69;5107225;28;20191;-68
2024/01/18 03:30:55;;;;;;;0.83;0.83;;;;;;;3.95;nan;98892.72;5099437;28;20260;-68
2024/01/18 03:33:22;;;;;;;0.70;0.70;;;;;;;3.93;nan;98883.44;5110450;28;20849;-68
2024/01/18 03:35:50;;;;;;;0.83;0.83;;;;;;;3.96;nan;98889.34;5102325;28;20191;-68
2024/01/18 03:38:17;;;;;;;0.80;0.80;;;;;;;3.95;nan;98882.56;5096048;28;20191;-68
2024/01/18 03:40:43;;;;;;;0.57;0.57;;;;;;;3.90;nan;98869.13;5097711;28;20256;-68
2024/01/18 03:43:10;;;;;;;0.77;0.77;;;;;;;3.97;nan;98883.41;5094581;28;20247;-68
2024/01/18 03:45:37;;;;;;;0.77;0.77;;;;;;;3.98;nan;98876.63;5094787;28;20628;-68
2024/01/18 03:48:04;;;;;;;3.80;1.37;;;;;;;4.02;nan;98879.09;5112317;28;20194;-68
2024/01/18 03:50:31;;;;;;;0.97;0.97;;;;;;;3.98;nan;98886.75;5099711;28;20187;-68
2024/01/18 03:52:59;;;;;;;1.07;1.07;;;;;;;4.00;nan;98893.50;5105762;28;20199;-68
2024/01/18 03:55:25;;;;;;;0.83;0.83;;;;;;;4.00;nan;98890.97;5089498;28;20252;-68
2024/01/18 03:57:52;;;;;;;0.60;0.60;;;;;;;3.98;nan;98892.69;5093072;28;20195;-68
2024/01/18 04:00:19;;;;;;;1.57;1.57;;;;;;;4.01;nan;98895.16;5093474;28;20671;-67
2024/01/18 04:02:46;;;;;;;1.10;1.10;;;;;;;3.99;nan;98884.22;5104668;28;20206;-68
2024/01/18 04:05:12;;;;;;;1.27;1.27;;;;;;;3.97;nan;98888.47;5100019;28;20240;-68
2024/01/18 04:07:39;;;;;;;0.80;0.80;;;;;;;4.00;nan;98888.44;5091723;28;20199;-68
2024/01/18 04:10:09;;;;;;;1.27;1.27;;;;;;;3.98;nan;98877.47;5106651;28;20195;-68
2024/01/18 04:12:36;;;;;;;2.00;1.47;;;;;;;3.88;nan;98855.59;5091871;28;20664;-67
2024/01/18 04:15:03;;;;;;;0.90;0.90;;;;;;;3.95;nan;98869.88;5100479;28;20343;-68
2024/01/18 04:17:29;;;;;;;1.27;1.27;;;;;;;3.99;nan;98879.16;5103191;28;20226;-68
2024/01/18 04:19:56;;;;;;;1.07;1.07;;;;;;;4.00;nan;98885.06;5098830;28;20264;-68
2024/01/18 04:22:23;;;;;;;0.73;0.73;;;;;;;4.03;nan;98896.00;5103271;28;20205;-68
2024/01/18 04:24:50;;;;;;;0.60;0.60;;;;;;;4.01;nan;98909.53;5102839;28;20263;-68
2024/01/18 04:27:18;;;;;;;0.70;0.70;;;;;;;4.03;nan;98908.69;5104377;28;20248;-68
2024/01/18 04:29:45;;;;;;;1.03;1.03;;;;;;;4.06;nan;98917.94;5107186;28;20251;-68
2024/01/18 04:32:12;;;;;;;1.10;1.10;;;;;;;4.04;nan;98912.06;5108759;28;20227;-68
2024/01/18 04:34:39;;;;;;;0.87;0.73;;;;;;;4.07;nan;98902.69;5099957;28;20244;-68
2024/01/18 04:37:05;;;;;;;0.90;0.90;;;;;;;4.04;nan;98892.59;5105859;28;20202;-67
2024/01/18 04:39:32;;;;;;;0.90;0.90;;;;;;;4.06;nan;98897.66;5110552;28;20211;-68
2024/01/18 04:41:59;;;;;;;1.70;1.40;;;;;;;4.09;nan;98882.41;5096731;28;20195;-68
2024/01/18 04:44:27;;;;;;;0.73;0.73;;;;;;;4.02;nan;98871.50;5111366;28;20265;-68
2024/01/18 04:46:53;;;;;;;0.87;0.87;;;;;;;4.06;nan;98873.16;5097885;28;20674;-67
2024/01/18 04:49:20;;;;;;;0.97;0.97;;;;;;;4.06;nan;98875.69;5110109;28;20194;-68
2024/01/18 04:51:47;;;;;;;1.20;1.20;;;;;;;4.05;nan;98878.22;5090842;28;20264;-68
2024/01/18 04:54:14;;;;;;;0.80;0.80;;;;;;;4.04;nan;98882.44;5104850;28;20196;-68
2024/01/18 04:56:40;;;;;;;0.90;0.90;;;;;;;4.05;nan;98879.06;5095561;28;20248;-67
2024/01/18 04:59:08;;;;;;;1.33;1.33;;;;;;;4.06;nan;98880.75;5095292;28;20307;-68
2024/01/18 05:01:39;;;;;;;0.73;0.73;;;;;;;4.06;nan;98875.69;5100614;28;20195;-68
2024/01/18 05:04:06;;;;;;;0.83;0.83;;;;;;;4.04;nan;98879.91;5090139;28;20560;-68
2024/01/18 05:06:33;;;;;;;1.30;1.30;;;;;;;4.06;nan;98878.22;5091440;28;20248;-68
2024/01/18 05:08:59;;;;;;;1.00;1.00;;;;;;;4.04;nan;98877.38;5094777;28;20191;-68
2024/01/18 05:11:26;;;;;;;2.00;2.00;;;;;;;4.05;nan;98868.91;5100402;28;20202;-68
2024/01/18 05:13:53;;;;;;;0.90;0.90;;;;;;;4.07;nan;98872.28;5088556;28;20211;-68
2024/01/18 05:16:19;;;;;;;0.80;0.80;;;;;;;4.07;nan;98864.66;5093641;28;20774;-68
2024/01/18 05:18:47;;;;;;;1.30;1.27;;;;;;;4.09;nan;98870.56;5090587;28;20703;-68
2024/01/18 05:21:14;;;;;;;1.00;1.00;;;;;;;4.09;nan;98870.56;5095555;28;20203;-68
2024/01/18 05:23:41;;;;;;;1.23;1.23;;;;;;;4.10;nan;98869.69;5090119;28;20260;-68
2024/01/18 05:26:08;;;;;;;0.90;0.90;;;;;;;4.13;nan;98867.16;5092115;28;20629;-67
2024/01/18 05:28:35;;;;;;;1.50;1.50;;;;;;;4.02;nan;98848.69;5092345;28;20204;-67
2024/01/18 05:31:02;;;;;;;0.87;0.87;;;;;;;4.08;nan;98861.28;5094413;28;20255;-67
2024/01/18 05:33:29;;;;;;;1.20;1.20;;;;;;;4.06;nan;98863.00;5091458;28;20256;-68
2024/01/18 05:35:57;;;;;;;1.30;1.30;;;;;;;4.04;nan;98871.50;5090503;28;20207;-68
2024/01/18 05:38:23;;;;;;;0.73;0.73;;;;;;;3.97;nan;98844.53;5087773;28;20207;-67
2024/01/18 05:40:50;;;;;;;1.57;1.57;;;;;;;4.06;nan;98862.16;5095003;28;20283;-68
2024/01/18 05:43:17;;;;;;;1.07;1.07;;;;;;;4.03;nan;98864.75;5090183;28;20203;-68
2024/01/18 05:45:43;;;;;;;0.70;0.70;;;;;;;4.00;nan;98859.72;5102861;28;20241;-67
2024/01/18 05:48:11;;;;;;;0.70;0.70;;;;;;;3.81;nan;98828.69;5089589;28;20199;-67
2024/01/18 05:50:37;;;;;;;0.97;0.97;;;;;;;4.04;nan;98867.25;5092927;28;20253;-67
2024/01/18 05:53:06;;;;;;;0.70;0.70;;;;;;;3.96;nan;98879.19;5095291;28;20203;-68
2024/01/18 05:55:34;;;;;;;1.77;1.73;;;;;;;4.01;nan;98885.03;5102616;28;20256;-67
2024/01/18 05:58:01;;;;;;;2.20;2.13;;;;;;;3.99;nan;98883.38;5099382;28;20555;-67
2024/01/18 06:00:27;;;;;;;1.40;1.40;;;;;;;3.91;nan;98865.72;5090636;28;20243;-68
2024/01/18 06:02:56;;;;;;;2.30;1.63;;;;;;;3.96;nan;98871.59;5104170;28;20211;-68
2024/01/18 06:05:23;;;;;;;0.87;0.87;;;;;;;3.98;nan;98867.31;5093073;28;20731;-67
2024/01/18 06:07:50;;;;;;;1.10;1.10;;;;;;;3.97;nan;98875.81;5101675;28;20261;-70
2024/01/18 06:10:18;;;;;;;0.70;0.70;;;;;;;4.03;nan;98880.78;5095417;28;20659;-71
2024/01/18 06:12:45;;;;;;;0.93;0.93;;;;;;;4.04;nan;98882.44;5090124;28;20291;-71
2024/01/18 06:15:12;;;;;;;0.80;0.80;;;;;;;4.07;nan;98876.53;5091031;28;20230;-70
2024/01/18 06:17:39;;;;;;;1.27;1.27;;;;;;;4.10;nan;98867.16;5090963;28;20256;-70
2024/01/18 06:20:07;;;;;;;0.60;0.60;;;;;;;4.15;nan;98870.50;5096823;28;20275;-71
2024/01/18 06:22:34;;;;;;;1.07;1.07;;;;;;;4.14;nan;98853.59;5096333;28;20215;-71
2024/01/18 06:25:00;;;;;;;0.70;0.70;;;;;;;4.26;nan;98872.91;5092620;28;20207;-71
2024/01/18 06:27:28;;;;;;;0.77;0.77;;;;;;;4.32;nan;98869.44;5091619;28;20245;-71
2024/01/18 06:29:55;;;;;;;0.77;0.77;;;;;;;4.33;nan;98873.66;5092045;28;20253;-71
2024/01/18 06:32:22;;;;;;;0.70;0.70;;;;;;;4.40;nan;98890.44;5090689;28;20210;-71
2024/01/18 06:34:48;;;;;;;1.27;1.27;;;;;;;4.38;nan;98889.63;5090394;28;20732;-70
2024/01/18 06:37:15;;;;;;;2.40;2.33;;;;;;;4.40;nan;98890.44;5089742;28;20640;-71
2024/01/18 06:39:42;;;;;;;1.20;1.20;;;;;;;4.43;nan;98887.88;5095495;28;20216;-68
2024/01/18 06:42:08;;;;;;;0.87;0.87;;;;;;;4.45;nan;98888.69;5091696;28;20256;-68
2024/01/18 06:44:36;;;;;;;0.90;0.90;;;;;;;4.50;nan;98877.63;5097897;28;20211;-68
2024/01/18 06:47:03;;;;;;;1.33;1.33;;;;;;;4.53;nan;98876.72;5094831;28;20228;-67
2024/01/18 06:49:30;;;;;;;1.10;1.10;;;;;;;4.52;nan;98875.91;5094269;28;20267;-68
2024/01/18 06:51:57;;;;;;;1.07;1.07;;;;;;;4.54;nan;98883.50;5096185;28;20199;-68
2024/01/18 06:54:23;;;;;;;1.20;1.20;;;;;;;4.53;nan;98885.19;5095010;28;20252;-68
2024/01/18 06:56:50;;;;;;;1.90;1.87;;;;;;;4.51;nan;98888.59;5099466;28;20591;-68
2024/01/18 06:59:18;;;;;;;1.43;1.33;;;;;;;4.53;nan;98881.81;5096329;28;20252;-71
2024/01/18 07:01:46;;;;;;;1.53;1.53;;;;;;;4.53;nan;98891.94;5096228;28;20196;-68
2024/01/18 07:04:13;;;;;;;1.40;1.40;;;;;;;4.46;nan;98880.22;5095056;28;20246;-68
2024/01/18 07:06:39;;;;;;;1.50;1.50;;;;;;;4.49;nan;98880.19;5091659;28;20200;-68
2024/01/18 07:09:07;;;;;;;3.40;1.93;;;;;;;4.40;nan;98880.28;5090725;28;20241;-67
2024/01/18 07:11:34;;;;;;;1.60;1.60;;;;;;;4.43;nan;98867.56;5097251;28;20219;-69
2024/01/18 07:14:00;;;;;;;1.67;1.67;;;;;;;4.42;nan;98881.13;5097455;28;20242;-70
2024/01/18 07:16:28;;;;;;;1.77;1.77;;;;;;;4.43;nan;98880.25;5091728;28;20313;-70
2024/01/18 07:18:56;;;;;;;0.70;0.70;;;;;;;4.49;nan;98885.25;5091253;28;20207;-70
2024/01/18 07:21:22;;;;;;;1.30;1.30;;;;;;;4.48;nan;98883.56;5096291;28;20594;-70
2024/01/18 07:23:54;;;;;;;0.70;0.70;;;;;;;4.50;nan;98889.47;5098442;28;20196;-70
2024/01/18 07:26:22;;;;;;;1.33;1.33;;;;;;;4.46;nan;98880.22;5103822;28;20201;-70
2024/01/18 07:28:49;;;;;;;0.80;0.80;;;;;;;4.47;nan;98875.13;5094845;28;20276;-70
2024/01/18 07:31:16;;;;;;;1.20;1.20;;;;;;;4.48;nan;98870.88;5092609;28;20294;-69
2024/01/18 07:33:43;;;;;;;1.03;1.03;;;;;;;4.50;nan;98861.53;5089305;28;20237;-70
2024/01/18 07:36:13;;;;;;;1.83;1.83;;;;;;;4.53;nan;98867.41;5096831;28;20204;-70
2024/01/18 07:38:40;;;;;;;0.60;0.60;;;;;;;4.49;nan;98862.44;5101907;28;20631;-70
2024/01/18 07:41:06;;;;;;;0.90;0.90;;;;;;;4.58;nan;98869.91;5095776;28;20229;-69
2024/01/18 07:43:33;;;;;;;1.13;1.13;;;;;;;4.63;nan;98860.50;5091113;28;20256;-71
2024/01/18 07:46:00;;;;;;;0.90;0.90;;;;;;;4.58;nan;98850.44;5102223;28;20210;-71
2024/01/18 07:48:27;;;;;;;0.80;0.80;;;;;;;4.66;nan;98855.38;5088836;28;20295;-69
2024/01/18 07:50:54;;;;;;;0.90;0.90;;;;;;;4.74;nan;98863.72;5091876;28;20214;-70
2024/01/18 07:53:23;;;;;;;1.70;1.60;;;;;;;4.73;nan;98854.44;5091543;28;20675;-70
2024/01/18 07:55:49;;;;;;;1.00;1.00;;;;;;;4.74;nan;98866.28;5101413;28;20199;-70
2024/01/18 07:58:16;;;;;;;1.30;1.30;;;;;;;4.76;nan;98854.38;5100735;28;20195;-70
2024/01/18 08:00:43;;;;;;;1.07;1.07;;;;;;;4.76;nan;98844.22;5095338;28;20609;-70
2024/01/18 08:03:10;;;;;;;0.90;0.90;;;;;;;4.80;nan;98843.31;5090849;28;20760;-69
2024/01/18 08:05:36;;;;;;;0.93;0.93;;;;;;;4.86;nan;98840.69;5102648;28;20265;-68
2024/01/18 08:08:04;;;;;;;1.33;1.33;;;;;;;4.89;nan;98820.31;5100897;28;20203;-68
2024/01/18 08:10:32;;;;;;;0.53;0.53;;;;;;;4.88;nan;98813.53;5098818;28;20199;-68
2024/01/18 08:12:59;;;;;;;0.77;0.77;;;;;;;4.99;nan;98816.75;5096199;28;20283;-68
2024/01/18 08:15:26;;;;;;;1.07;1.07;;;;;;;5.06;nan;98823.41;5094066;28;20203;-68
2024/01/18 08:17:52;;;;;;;3.00;1.47;;;;;;;5.11;nan;98819.06;5099400;28;20203;-67
2024/01/18 08:20:19;;;;;;;1.30;1.30;;;;;;;5.18;nan;98823.19;5100102;28;20279;-68
2024/01/18 08:22:46;;;;;;;1.10;1.10;;;;;;;5.22;nan;98819.72;5099431;28;20202;-68
2024/01/18 08:25:13;;;;;;;1.10;1.10;;;;;;;5.26;nan;98806.13;5096607;28;20199;-67
2024/01/18 08:27:41;;;;;;;1.20;1.20;;;;;;;5.32;nan;98800.06;5100450;28;20195;-67
2024/01/18 08:30:09;;;;;;;1.43;1.43;;;;;;;5.30;nan;98786.53;5096308;28;20603;-68
2024/01/18 08:32:36;;;;;;;1.23;1.23;;;;;;;5.34;nan;98782.25;5101474;28;20203;-68
2024/01/18 08:35:06;;;;;;;0.83;0.83;;;;;;;5.39;nan;98780.47;5095324;28;20202;-68
2024/01/18 08:37:33;;;;;;;0.87;0.87;;;;;;;5.45;nan;98772.72;5089393;28;20678;-68
2024/01/18 08:40:00;;;;;;;0.73;0.73;;;;;;;5.49;nan;98771.81;5090669;28;20211;-68
2024/01/18 08:42:26;;;;;;;1.60;1.60;;;;;;;5.52;nan;98766.66;5088781;28;20260;-69
2024/01/18 08:44:54;;;;;;;1.07;1.07;;;;;;;5.55;nan;98757.25;5092612;28;20257;-69
2024/01/18 08:47:22;;;;;;;1.83;1.80;;;;;;;5.54;nan;98739.47;5091736;28;20196;-70
2024/01/18 08:49:48;;;;;;;2.40;2.30;;;;;;;5.58;nan;98725.84;5094322;28;20195;-70
2024/01/18 08:52:15;;;;;;;1.03;1.03;;;;;;;5.62;nan;98737.63;5092157;28;20199;-71
2024/01/18 08:54:43;;;;;;;1.77;1.77;;;;;;;5.45;nan;98710.03;5088691;28;20297;-70
2024/01/18 08:57:10;;;;;;;4.27;3.80;;;;;;;5.44;nan;98682.91;5089968;28;20290;-72
2024/01/18 08:59:37;;;;;;;2.37;2.37;;;;;;;5.46;nan;98675.28;5090418;28;20235;-72
2024/01/18 09:02:05;;;;;;;1.90;1.80;;;;;;;5.16;nan;98636.94;5096013;28;20218;-72
2024/01/18 09:04:32;;;;;;;2.30;2.20;;;;;;;5.30;nan;98642.53;5093580;28;20235;-73
2024/01/18 09:07:00;;;;;;;1.67;1.63;;;;;;;5.36;nan;98668.72;5096600;28;20256;-73
2024/01/18 09:09:28;;;;;;;1.53;1.50;;;;;;;5.32;nan;98664.56;5103435;28;20217;-71
2024/01/18 09:11:55;;;;;;;1.70;1.30;;;;;;;5.27;nan;98647.69;5102275;28;20574;-71
2024/01/18 09:14:23;;;;;;;1.57;1.57;;;;;;;5.45;nan;98669.34;5099707;28;20201;-71
2024/01/18 09:16:50;;;;;;;0.87;0.87;;;;;;;5.50;nan;98661.59;5095778;28;20727;-73
2024/01/18 09:19:20;;;;;;;2.00;1.90;;;;;;;5.29;nan;98618.03;5092349;28;20241;-74
2024/01/18 09:21:51;;;;;;;1.13;1.07;;;;;;;5.52;nan;98657.34;5089139;28;20219;-74
2024/01/18 09:24:19;;;;;;;1.80;1.50;;;;;;;5.62;nan;98671.53;5090715;28;20564;-74
2024/01/18 09:26:47;;;;;;;1.00;1.00;;;;;;;5.62;nan;98666.44;5114306;28;20303;-73
2024/01/18 09:29:14;;;;;;;1.50;1.50;;;;;;;5.60;nan;98655.47;5098108;28;20227;-73
2024/01/18 09:31:41;;;;;;;1.43;1.33;;;;;;;5.68;nan;98656.97;5093831;28;20214;-74
2024/01/18 09:34:07;;;;;;;1.13;0.90;;;;;;;5.80;nan;98651.59;5094900;28;20199;-72
2024/01/18 09:36:36;;;;;;;1.00;1.00;;;;;;;5.72;nan;98625.50;5094590;28;20191;-71
2024/01/18 09:39:03;;;;;;;1.00;1.00;;;;;;;5.73;nan;98632.28;5094826;28;20566;-71
2024/01/18 09:41:30;;;;;;;1.17;1.17;;;;;;;5.82;nan;98646.47;5094926;28;20219;-72
2024/01/18 09:44:03;;;;;;;1.30;1.20;;;;;;;5.90;nan;98637.00;5094575;28;20191;-72
2024/01/18 09:46:31;;;;;;;1.10;1.10;;;;;;;5.92;nan;98635.25;5093593;28;20724;-72
2024/01/18 09:48:59;;;;;;;0.70;0.70;;;;;;;6.00;nan;98633.38;5094359;28;20191;-71
2024/01/18 09:51:26;;;;;;;1.20;1.20;;;;;;;6.04;nan;98640.03;5103822;28;20325;-71
2024/01/18 09:53:54;;;;;;;1.90;1.80;;;;;;;6.19;nan;98633.75;5092827;28;20191;-72
2024/01/18 09:56:25;;;;;;;3.20;1.60;;;;;;;6.23;nan;98633.66;5094214;28;20207;-72
2024/01/18 09:58:53;;;;;;;2.93;2.67;;;;;;;6.31;nan;98641.91;5094202;28;20213;-71
2024/01/18 10:01:21;;;;;;;3.60;1.70;;;;;;;6.32;nan;98630.88;5095969;28;20218;-71
2024/01/18 10:03:48;;;;;;;1.50;1.50;;;;;;;6.38;nan;98623.94;5094134;28;20200;-72
2024/01/18 10:06:17;;;;;;;2.53;2.43;;;;;;;6.30;nan;98612.22;5096633;28;20203;-72
2024/01/18 10:08:45;;;;;;;2.33;2.03;;;;;;;6.43;nan;98627.22;5091489;28;20211;-72
2024/01/18 10:11:13;;;;;;;2.60;2.50;;;;;;;6.49;nan;98627.88;5092278;28;20200;-72
2024/01/18 10:13:51;;;;;;;0.93;0.83;;;;;;;6.42;nan;98616.19;5097195;28;20283;-72
2024/01/18 10:16:37;;;;;;;2.73;1.60;;;;;;;6.50;nan;98618.53;5112565;28;20218;-71
2024/01/18 10:19:06;;;;;;;2.23;2.17;;;;;;;6.51;nan;98615.09;5093850;28;20195;-72
2024/01/18 10:21:36;;;;;;;2.03;1.90;;;;;;;6.41;nan;98595.84;5101143;28;20272;-72
2024/01/18 10:24:04;;;;;;;2.50;2.40;;;;;;;6.50;nan;98608.34;5104036;28;20203;-71
2024/01/18 10:26:33;;;;;;;1.20;1.20;;;;;;;6.57;nan;98599.66;5093822;28;20227;-72
2024/01/18 10:29:00;;;;;;;1.90;1.80;;;;;;;6.64;nan;98613.91;5093475;28;20202;-72
2024/01/18 10:31:26;;;;;;;3.13;1.73;;;;;;;6.68;nan;98602.78;5093993;28;20196;-72
2024/01/18 10:33:53;;;;;;;2.07;1.97;;;;;;;6.72;nan;98587.34;5111476;28;20648;-72
2024/01/18 10:36:21;;;;;;;5.70;2.17;;;;;;;6.75;nan;98573.72;5100878;28;20207;-72
2024/01/18 10:38:48;;;;;;;2.33;2.23;;;;;;;6.77;nan;98584.69;5093305;28;20203;-72
2024/01/18 10:41:19;;;;;;;2.40;2.20;;;;;;;6.67;nan;98573.06;5091718;28;20219;-72
2024/01/18 10:43:48;;;;;;;2.27;2.17;;;;;;;6.79;nan;98590.56;5091521;28;20203;-69
2024/01/18 10:46:15;;;;;;;10.73;2.27;;;;;;;6.81;nan;98559.09;5089868;28;20200;-71
2024/01/18 10:48:44;;;;;;;2.70;2.50;;;;;;;6.83;nan;98561.59;5094622;28;20199;-71
2024/01/18 10:51:11;;;;;;;2.73;2.63;;;;;;;6.90;nan;98563.09;5089541;28;20296;-71
2024/01/18 10:53:41;;;;;;;1.87;1.80;;;;;;;6.86;nan;98546.22;5089502;28;20937;-71
2024/01/18 10:56:08;;;;;;;3.57;3.43;;;;;;;6.94;nan;98539.19;5091257;28;20210;-71
2024/01/18 10:58:34;;;;;;;6.67;2.00;;;;;;;7.09;nan;98518.34;5090616;28;20298;-71
2024/01/18 11:01:03;;;;;;;2.77;2.67;;;;;;;7.16;nan;98509.63;5089413;28;20211;-70
2024/01/18 11:03:30;;;;;;;4.00;3.67;;;;;;;7.24;nan;98507.66;5090024;28;20204;-71
2024/01/18 11:06:00;;;;;;;2.27;2.10;;;;;;;7.40;nan;98524.16;5090032;28;20264;-71
2024/01/18 11:08:28;;;;;;;2.57;2.33;;;;;;;7.48;nan;98525.63;5088906;28;20585;-71
2024/01/18 11:10:55;;;;;;;4.93;2.10;;;;;;;7.49;nan;98506.91;5091834;28;20203;-71
2024/01/18 11:13:21;;;;;;;3.43;2.83;;;;;;;7.66;nan;98519.94;5089869;28;20248;-71
2024/01/18 11:15:48;;;;;;;1.97;1.87;;;;;;;7.70;nan;98508.75;5090943;28;20639;-71
2024/01/18 11:18:17;;;;;;;3.10;2.23;;;;;;;7.74;nan;98502.69;5090253;28;20241;-71
2024/01/18 11:21:08;;;;;;;5.30;3.60;;;;;;;7.81;nan;98504.16;5089330;28;20200;-71
2024/01/18 11:23:38;;;;;;;3.83;2.53;;;;;;;7.83;nan;98495.56;5069856;28;20203;-71
2024/01/18 11:26:07;;;;;;;2.73;2.60;;;;;;;7.84;nan;98479.38;5090797;28;20253;-72
2024/01/18 11:28:35;;;;;;;2.83;2.60;;;;;;;7.83;nan;98481.97;5091010;28;20248;-72
2024/01/18 11:31:02;;;;;;;2.83;2.00;;;;;;;7.83;nan;98487.06;5083727;28;20265;-73
2024/01/18 11:33:32;;;;;;;2.53;2.43;;;;;;;7.88;nan;98469.91;5090112;28;20564;-72
2024/01/18 11:36:00;;;;;;;1.93;1.83;;;;;;;7.92;nan;98496.94;5088854;28;20564;-72
2024/01/18 11:38:29;;;;;;;4.53;2.57;;;;;;;8.01;nan;98440.50;5094743;28;20229;-72
2024/01/18 11:40:58;;;;;;;2.33;2.23;;;;;;;8.04;nan;98480.41;5097685;28;20199;-72
2024/01/18 11:43:25;;;;;;;2.37;2.27;;;;;;;8.11;nan;98462.25;5094319;28;20200;-72
2024/01/18 11:45:54;;;;;;;4.57;3.23;;;;;;;8.04;nan;98459.97;5090715;28;20203;-72
2024/01/18 11:48:21;;;;;;;3.60;2.40;;;;;;;8.10;nan;98460.59;5096274;28;20251;-68
2024/01/18 11:50:49;;;;;;;6.57;2.37;;;;;;;8.09;nan;98428.31;5096250;28;20272;-69
2024/01/18 11:53:18;;;;;;;3.03;2.83;;;;;;;8.20;nan;98438.97;5091674;28;20204;-69
2024/01/18 11:55:47;;;;;;;8.17;2.50;;;;;;;8.17;nan;98416.13;5096997;28;20199;-69
2024/01/18 11:58:13;;;;;;;2.53;2.33;;;;;;;8.43;nan;98433.06;5093230;28;20282;-67
2024/01/18 12:00:41;;;;;;;2.23;1.97;;;;;;;8.44;nan;98414.28;5094491;28;20564;-68